Terminal Aerodrome Forecast
Issued by NWS Albuquerque, NM

Home | Current Version | Previous Version | Text Only | Print | Product List | Glossary On
Versions: 1 2 3 4 5 6 7 8 9 10 11 12 13 14
000
FTUS45 KABQ 211100
TAFABQ
TAF
KABQ 211124Z 2112/2212 VRB05KT P6SM FEW130
     FM212000 27006KT P6SM FEW120 SCT200
     FM220400 23006KT P6SM SCT090 BKN150
     FM220900 VRB05KT P6SM VCSH BKN090=

USA.gov is the U.S. government's official web portal to all federal, state and local government web resources and services.